Time;durP1;ratioP1;P1;durP2;ratioP2;P2;SDS_P1;SDS_P2;PMS_P1;PMS_P2;Temp;Humidity;BMP_temperature;BMP_pressure;BME280_temperature;BME280_humidity;BME280_pressure;Samples;Min_cycle;Max_cycle;Signal;HPM_P1;HPM_P2
2022/04/29 00:01:15;;;;;;;15.60;8.60;;;9.80;99.90;;;;;;5073595;28;20388;-59
2022/04/29 00:03:40;;;;;;;14.02;9.00;;;9.70;1.00;;;;;;5071178;28;20983;-61
2022/04/29 00:06:06;;;;;;;14.30;8.47;;;9.60;1.00;;;;;;5071943;28;20392;-61
2022/04/29 00:08:32;;;;;;;15.40;8.90;;;9.60;26.80;;;;;;5071433;28;20411;-61
2022/04/29 00:10:57;;;;;;;14.60;9.23;;;9.60;99.90;;;;;;5071931;28;20392;-60
2022/04/29 00:13:23;;;;;;;14.75;9.57;;;9.70;1.00;;;;;;5053204;28;20832;-58
2022/04/29 00:15:49;;;;;;;14.80;9.60;;;9.70;1.00;;;;;;5085813;28;20386;-60
2022/04/29 00:18:15;;;;;;;13.80;9.18;;;9.70;1.00;;;;;;5091974;28;20370;-60
2022/04/29 00:20:40;;;;;;;14.77;9.50;;;9.70;1.00;;;;;;5078494;28;20439;-60
2022/04/29 00:23:07;;;;;;;13.90;9.90;;;9.70;1.00;;;;;;5050258;28;20425;-60
2022/04/29 00:25:34;;;;;;;13.75;9.85;;;9.60;1.00;;;;;;5051262;28;20402;-60
2022/04/29 00:28:00;;;;;;;14.05;9.65;;;9.60;1.00;;;;;;5051727;28;20859;-60
2022/04/29 00:30:26;;;;;;;16.10;10.07;;;9.60;18.70;;;;;;5050561;28;20385;-60
2022/04/29 00:32:52;;;;;;;14.70;10.00;;;9.60;43.30;;;;;;5051474;28;20390;-60
2022/04/29 00:35:17;;;;;;;14.45;9.63;;;9.50;1.00;;;;;;5061514;28;20384;-61
2022/04/29 00:37:51;;;;;;;14.87;10.63;;;9.40;1.00;;;;;;5070640;28;20997;-61
2022/04/29 00:40:28;;;;;;;13.43;9.50;;;9.20;99.90;;;;;;5071269;28;20395;-60
2022/04/29 00:42:54;;;;;;;14.93;10.40;;;9.20;1.00;;;;;;5071022;28;20469;-61
2022/04/29 00:45:22;;;;;;;16.25;10.75;;;9.20;1.00;;;;;;5070666;28;20461;-58
2022/04/29 00:47:49;;;;;;;17.73;10.40;;;9.10;99.90;;;;;;5071208;28;20475;-60
2022/04/29 00:50:18;;;;;;;16.67;10.45;;;9.10;99.90;;;;;;5070802;28;20392;-60
2022/04/29 00:52:47;;;;;;;15.70;10.57;;;9.00;1.00;;;;;;5070330;28;20392;-60
2022/04/29 00:55:15;;;;;;;17.30;11.00;;;8.90;1.00;;;;;;5069233;28;20445;-59
2022/04/29 00:57:46;;;;;;;14.52;10.02;;;8.90;1.00;;;;;;5070092;28;20525;-60
2022/04/29 01:00:18;;;;;;;16.48;10.32;;;8.80;1.00;;;;;;5070445;28;20441;-60
2022/04/29 01:02:46;;;;;;;15.27;10.20;;;8.90;1.00;;;;;;5068821;28;20656;-60
2022/04/29 01:05:15;;;;;;;15.07;9.90;;;8.80;1.00;;;;;;5060557;28;20393;-60
2022/04/29 01:07:42;;;;;;;14.13;10.50;;;8.70;99.90;;;;;;5050658;28;20389;-58
2022/04/29 01:10:10;;;;;;;16.52;11.32;;;8.60;99.90;;;;;;5054974;28;20393;-59
2022/04/29 01:12:37;;;;;;;15.73;11.00;;;8.60;99.90;;;;;;5066019;28;20414;-58
2022/04/29 01:15:07;;;;;;;18.00;10.80;;;8.60;99.90;;;;;;5070890;28;20392;-59
2022/04/29 01:17:35;;;;;;;16.05;10.65;;;8.50;99.90;;;;;;5069551;28;20410;-59
2022/04/29 01:20:04;;;;;;;18.00;12.23;;;8.60;99.90;;;;;;5070254;28;20895;-58
2022/04/29 01:22:31;;;;;;;16.92;11.40;;;8.60;99.90;;;;;;5069390;28;20419;-58
2022/04/29 01:24:57;;;;;;;15.95;10.80;;;8.60;99.90;;;;;;5069847;28;20994;-59
2022/04/29 01:27:22;;;;;;;17.58;10.90;;;8.60;99.90;;;;;;5069852;28;20376;-56
2022/04/29 01:29:57;;;;;;;16.87;11.20;;;8.70;99.90;;;;;;5069137;28;20396;-59
2022/04/29 01:32:23;;;;;;;18.80;12.18;;;8.70;99.90;;;;;;5069936;28;20383;-57
2022/04/29 01:34:49;;;;;;;18.20;10.52;;;8.60;99.90;;;;;;5069050;28;20392;-59
2022/04/29 01:37:15;;;;;;;18.42;11.45;;;8.50;99.90;;;;;;5070078;28;20806;-59
2022/04/29 01:39:41;;;;;;;18.20;11.27;;;8.50;99.90;;;;;;5055696;28;20496;-59
2022/04/29 01:42:07;;;;;;;17.25;10.45;;;8.40;99.90;;;;;;5032103;28;20500;-59
2022/04/29 01:44:33;;;;;;;16.10;11.30;;;9.80;99.90;;;;;;5049266;28;20402;-58
2022/04/29 01:46:59;;;;;;;17.65;10.40;;;8.30;99.90;;;;;;5049751;28;20377;-58
2022/04/29 01:49:24;;;;;;;17.00;11.27;;;8.20;99.90;;;;;;5060310;28;20399;-56
2022/04/29 01:51:50;;;;;;;17.87;11.60;;;8.10;1.00;;;;;;5069456;28;20400;-59
2022/04/29 01:54:16;;;;;;;20.10;12.30;;;8.00;1.00;;;;;;5059988;28;20390;-59
2022/04/29 01:56:41;;;;;;;17.77;11.90;;;8.00;1.00;;;;;;5048508;28;20397;-58
2022/04/29 01:59:07;;;;;;;18.60;12.07;;;8.00;1.00;;;;;;5040315;28;20380;-59
2022/04/29 02:01:34;;;;;;;19.20;12.05;;;8.00;1.00;;;;;;5069002;28;20408;-59
2022/04/29 02:04:01;;;;;;;18.80;12.13;;;7.90;1.00;;;;;;5062255;28;20420;-59
2022/04/29 02:06:27;;;;;;;19.50;12.68;;;8.00;1.00;;;;;;5048519;28;20468;-56
2022/04/29 02:08:53;;;;;;;17.40;11.77;;;8.00;1.00;;;;;;5049678;28;20858;-59
2022/04/29 02:11:20;;;;;;;17.75;12.10;;;8.10;1.00;;;;;;5049495;28;20381;-59
2022/04/29 02:13:46;;;;;;;18.55;11.30;;;8.10;1.00;;;;;;5057538;28;20703;-59
2022/04/29 02:16:15;;;;;;;17.38;11.68;;;8.20;1.00;;;;;;5069711;28;20391;-59
2022/04/29 02:18:41;;;;;;;17.75;11.10;;;8.20;99.90;;;;;;5068498;28;20454;-59
2022/04/29 02:21:07;;;;;;;17.97;11.87;;;8.10;1.00;;;;;;5071651;28;20574;-59
2022/04/29 02:23:33;;;;;;;17.45;11.88;;;8.00;1.00;;;;;;5068039;28;20419;-59
2022/04/29 02:25:59;;;;;;;16.60;11.68;;;7.90;1.00;;;;;;5069464;28;20744;-59
2022/04/29 02:28:27;;;;;;;18.38;12.23;;;7.80;1.00;;;;;;5063720;28;20453;-57
2022/04/29 02:30:55;;;;;;;18.25;11.70;;;7.80;1.00;;;;;;5051003;28;20889;-59
2022/04/29 02:33:21;;;;;;;17.95;12.30;;;7.70;1.00;;;;;;5061820;28;20400;-59
2022/04/29 02:35:47;;;;;;;19.38;12.75;;;7.70;1.00;;;;;;5068908;28;20394;-58
2022/04/29 02:38:13;;;;;;;19.60;12.00;;;7.70;1.00;;;;;;5065208;28;20755;-60
2022/04/29 02:40:39;;;;;;;18.85;12.75;;;7.60;1.00;;;;;;5048774;28;20729;-59
2022/04/29 02:43:05;;;;;;;19.02;12.30;;;7.70;1.00;;;;;;5034509;28;20443;-60
2022/04/29 02:45:32;;;;;;;19.10;11.80;;;7.70;1.00;;;;;;5050734;28;20998;-57
2022/04/29 02:47:58;;;;;;;19.30;13.02;;;7.60;1.00;;;;;;5053497;28;20432;-57
2022/04/29 02:50:24;;;;;;;18.15;12.30;;;7.50;1.00;;;;;;5052638;28;20445;-54
2022/04/29 02:52:50;;;;;;;19.65;12.98;;;7.50;1.00;;;;;;5068430;28;20553;-57
2022/04/29 02:55:16;;;;;;;19.90;12.55;;;7.50;1.00;;;;;;5054401;28;20975;-58
2022/04/29 02:57:42;;;;;;;17.57;12.70;;;7.50;1.00;;;;;;5064558;28;20414;-57
2022/04/29 03:00:08;;;;;;;19.65;13.13;;;7.60;1.00;;;;;;5070936;28;20411;-57
2022/04/29 03:02:34;;;;;;;19.35;12.95;;;7.50;1.00;;;;;;5055501;28;20448;-57
2022/04/29 03:05:00;;;;;;;17.40;12.25;;;7.60;1.00;;;;;;5035567;28;20422;-57
2022/04/29 03:07:25;;;;;;;17.80;12.40;;;7.50;1.00;;;;;;5068809;28;20384;-57
2022/04/29 03:09:51;;;;;;;20.13;11.68;;;7.60;1.00;;;;;;5057165;28;20497;-57
2022/04/29 03:12:17;;;;;;;19.67;11.98;;;7.40;1.00;;;;;;5041222;28;20494;-57
2022/04/29 03:14:43;;;;;;;19.17;12.53;;;7.50;1.00;;;;;;5071944;28;20383;-58
2022/04/29 03:18:18;;;;;;;17.85;11.65;;;7.50;1.00;;;;;;5055945;28;20393;-57
2022/04/29 03:19:58;;;;;;;20.52;12.55;;;7.50;1.00;;;;;;5060995;28;20403;-57
2022/04/29 03:22:25;;;;;;;18.93;12.60;;;7.40;1.00;;;;;;5070097;28;20427;-55
2022/04/29 03:24:51;;;;;;;21.50;12.93;;;7.50;1.00;;;;;;5052257;28;20390;-57
2022/04/29 03:27:17;;;;;;;19.58;12.70;;;7.50;1.00;;;;;;5064922;28;20443;-57
2022/04/29 03:29:45;;;;;;;19.13;12.60;;;7.60;1.00;;;;;;5067344;28;20467;-57
2022/04/29 03:32:10;;;;;;;19.17;12.85;;;7.60;1.00;;;;;;5052507;28;20891;-57
2022/04/29 03:34:36;;;;;;;19.20;13.60;;;7.60;1.00;;;;;;5067820;28;20427;-57
2022/04/29 03:37:02;;;;;;;19.30;12.57;;;7.70;1.00;;;;;;5062584;28;20504;-59
2022/04/29 03:39:28;;;;;;;19.58;12.63;;;7.70;1.00;;;;;;5052221;28;20389;-55
2022/04/29 03:41:53;;;;;;;17.55;12.32;;;7.70;1.00;;;;;;5070567;28;20495;-59
2022/04/29 03:44:20;;;;;;;19.77;13.30;;;7.70;1.00;;;;;;5063545;28;20401;-59
2022/04/29 03:46:45;;;;;;;17.52;12.07;;;7.70;1.00;;;;;;5052259;28;20485;-60
2022/04/29 03:51:57;;;;;;;18.58;12.95;;;7.70;1.00;;;;;;5060532;28;20410;-60
2022/04/29 03:54:22;;;;;;;20.80;14.18;;;7.60;1.00;;;;;;5052842;28;20372;-59
2022/04/29 03:56:48;;;;;;;17.80;12.40;;;7.60;1.00;;;;;;5071593;28;20455;-59
2022/04/29 03:59:14;;;;;;;20.47;13.20;;;7.60;1.00;;;;;;5061935;28;20867;-59
2022/04/29 04:01:42;;;;;;;22.52;14.40;;;7.70;1.00;;;;;;5054760;28;22155;-60
2022/04/29 04:04:07;;;;;;;20.92;13.68;;;7.80;1.00;;;;;;5052607;28;20858;-59
2022/04/29 04:06:52;;;;;;;20.25;13.10;;;7.80;1.00;;;;;;5042345;28;20399;-59
2022/04/29 04:09:19;;;;;;;20.55;14.10;;;7.80;1.00;;;;;;5060983;28;20407;-58
2022/04/29 04:11:48;;;;;;;26.33;15.07;;;7.70;1.00;;;;;;5065631;28;21222;-59
2022/04/29 04:14:17;;;;;;;22.25;15.07;;;7.70;1.00;;;;;;5053445;28;20479;-59
2022/04/29 04:16:43;;;;;;;19.97;13.40;;;7.70;1.00;;;;;;5070817;28;20384;-59
2022/04/29 04:19:09;;;;;;;20.97;13.57;;;7.80;1.00;;;;;;5070732;28;20768;-59
2022/04/29 04:21:35;;;;;;;18.20;13.13;;;7.70;1.00;;;;;;5070861;28;20423;-59
2022/04/29 04:24:01;;;;;;;19.08;13.13;;;7.60;1.00;;;;;;5071303;28;20419;-59
2022/04/29 04:26:26;;;;;;;22.63;13.00;;;7.70;1.00;;;;;;5070698;28;20396;-56
2022/04/29 04:28:52;;;;;;;18.90;13.38;;;7.70;1.00;;;;;;5071726;28;20408;-59
2022/04/29 04:31:21;;;;;;;20.33;13.10;;;7.70;1.00;;;;;;5051775;28;20445;-59
2022/04/29 04:33:47;;;;;;;22.35;14.18;;;7.70;1.00;;;;;;5070740;28;21016;-59
2022/04/29 04:36:13;;;;;;;19.40;13.55;;;7.80;1.00;;;;;;5069871;28;20534;-59
2022/04/29 04:38:39;;;;;;;18.55;12.20;;;7.80;1.00;;;;;;5070655;28;20487;-59
2022/04/29 04:41:04;;;;;;;18.77;13.57;;;7.90;1.00;;;;;;5054151;28;20488;-58
2022/04/29 04:43:30;;;;;;;19.50;12.77;;;8.10;1.00;;;;;;5050458;28;21098;-56
2022/04/29 04:45:56;;;;;;;17.85;12.90;;;8.20;1.00;;;;;;5053793;28;20401;-59
2022/04/29 04:48:22;;;;;;;20.33;14.10;;;8.40;1.00;;;;;;5063607;28;20376;-59
2022/04/29 04:50:48;;;;;;;20.65;13.82;;;8.60;1.00;;;;;;5065506;28;20985;-59
2022/04/29 04:53:14;;;;;;;18.50;12.70;;;8.80;1.00;;;;;;5049069;28;20443;-58
2022/04/29 04:55:40;;;;;;;19.60;12.80;;;8.90;99.90;;;;;;5044329;28;20400;-59
2022/04/29 04:58:06;;;;;;;17.67;12.83;;;9.10;99.90;;;;;;5065757;28;20380;-59
2022/04/29 05:00:32;;;;;;;19.33;12.52;;;9.40;99.90;;;;;;5059527;28;20409;-58
2022/04/29 05:02:58;;;;;;;21.02;14.10;;;9.60;1.00;;;;;;5061487;28;20418;-58
2022/04/29 05:05:23;;;;;;;19.48;12.75;;;9.70;99.90;;;;;;5058405;28;20755;-59
2022/04/29 05:07:49;;;;;;;19.23;13.07;;;9.80;1.00;;;;;;5057658;28;20422;-59
2022/04/29 05:10:15;;;;;;;20.98;12.80;;;9.90;99.90;;;;;;5062552;28;20481;-58
2022/04/29 05:12:42;;;;;;;18.97;12.70;;;10.10;99.90;;;;;;5060852;28;20441;-59
2022/04/29 05:15:08;;;;;;;18.50;12.82;;;10.20;99.90;;;;;;5045540;28;20885;-60
2022/04/29 05:17:34;;;;;;;20.38;12.35;;;10.20;99.90;;;;;;5060005;28;20381;-58
2022/04/29 05:20:01;;;;;;;18.67;12.57;;;10.20;99.90;;;;;;5056326;28;20415;-59
2022/04/29 05:22:30;;;;;;;18.65;12.65;;;10.50;99.90;;;;;;5068298;28;20434;-58
2022/04/29 05:24:56;;;;;;;19.50;13.32;;;10.70;99.90;;;;;;5078600;28;20403;-58
2022/04/29 05:27:22;;;;;;;20.08;13.32;;;10.80;1.00;;;;;;5061547;28;20403;-59
2022/04/29 05:29:47;;;;;;;20.83;13.07;;;10.90;1.00;;;;;;5079199;28;20435;-58
2022/04/29 05:32:15;;;;;;;18.60;13.40;;;10.80;99.90;;;;;;5078030;28;20429;-58
2022/04/29 05:34:42;;;;;;;20.02;14.00;;;10.90;1.00;;;;;;5080496;28;20422;-59
2022/04/29 05:37:07;;;;;;;20.25;13.40;;;11.10;99.90;;;;;;5078947;28;20443;-59
2022/04/29 05:42:19;;;;;;;17.55;12.55;;;11.70;38.60;;;;;;5084599;28;20438;-58
2022/04/29 05:44:45;;;;;;;18.55;13.05;;;12.30;99.90;;;;;;5071144;28;20391;-59
2022/04/29 05:47:11;;;;;;;18.05;12.82;;;12.80;1.00;;;;;;5068197;28;20748;-59
2022/04/29 05:49:38;;;;;;;16.00;11.50;;;12.90;99.90;;;;;;5089283;28;20422;-59
2022/04/29 05:52:05;;;;;;;18.88;12.55;;;13.30;99.90;;;;;;5090291;28;20378;-60
2022/04/29 05:54:31;;;;;;;17.58;11.80;;;13.90;19.70;;;;;;5090859;28;20374;-57
2022/04/29 05:57:00;;;;;;;17.47;12.07;;;14.40;1.00;;;;;;5090793;28;20378;-59
2022/04/29 05:59:26;;;;;;;17.63;11.60;;;15.30;1.00;;;;;;5072484;28;20386;-60
2022/04/29 06:01:52;;;;;;;16.17;11.75;;;16.50;1.00;;;;;;5089217;28;20405;-60
2022/04/29 06:04:18;;;;;;;18.20;11.90;;;;;;;;;;5086618;28;20402;-58
2022/04/29 06:06:44;;;;;;;14.50;11.60;;;;;;;;;;5076648;28;20478;-61
2022/04/29 06:09:10;;;;;;;17.00;13.77;;;19.90;99.90;;;;;;5087666;28;20385;-60
2022/04/29 06:11:36;;;;;;;16.42;13.57;;;20.40;6.30;;;;;;5068853;28;20380;-58
2022/04/29 06:14:02;;;;;;;25.38;15.32;;;20.70;1.00;;;;;;5058402;28;20736;-60
2022/04/29 06:16:27;;;;;;;20.70;15.75;;;20.90;1.00;;;;;;5089534;28;20885;-61
2022/04/29 06:18:53;;;;;;;16.20;13.03;;;20.60;1.00;;;;;;5089098;28;21184;-62
2022/04/29 06:21:19;;;;;;;16.20;14.50;;;20.60;1.00;;;;;;5089873;28;20487;-61
2022/04/29 06:23:46;;;;;;;16.33;10.90;;;21.70;99.90;;;;;;5072625;28;20404;-61
2022/04/29 06:26:11;;;;;;;14.52;11.50;;;22.50;99.90;;;;;;5069326;28;20383;-61
2022/04/29 06:28:38;;;;;;;16.55;14.27;;;23.10;99.90;;;;;;5069533;28;20425;-61
2022/04/29 06:31:04;;;;;;;15.10;13.10;;;23.60;99.90;;;;;;5052055;28;20403;-60
2022/04/29 06:33:33;;;;;;;18.17;16.17;;;23.70;99.90;;;;;;5051468;28;20391;-61
2022/04/29 06:35:59;;;;;;;19.08;15.68;;;22.90;99.90;;;;;;5069115;28;20513;-60
2022/04/29 06:38:25;;;;;;;18.20;15.30;;;23.30;99.90;;;;;;5069462;28;20426;-61
2022/04/29 06:40:52;;;;;;;19.33;17.33;;;23.00;99.90;;;;;;5067406;28;20436;-59
2022/04/29 06:43:19;;;;;;;15.02;12.45;;;22.70;99.90;;;;;;5073489;28;20409;-61
2022/04/29 06:45:45;;;;;;;16.33;13.00;;;22.70;99.90;;;;;;5093023;28;20458;-60
2022/04/29 06:48:11;;;;;;;14.70;11.27;;;22.90;99.90;;;;;;5093923;28;20394;-60
2022/04/29 06:50:37;;;;;;;14.70;11.20;;;22.80;99.90;;;;;;5093215;28;20406;-60
2022/04/29 06:53:03;;;;;;;13.93;11.50;;;23.10;99.90;;;;;;5093412;28;20743;-60
2022/04/29 06:55:28;;;;;;;16.63;11.93;;;23.20;99.90;;;;;;5093744;28;20740;-60
2022/04/29 06:57:54;;;;;;;17.23;14.60;;;23.40;99.90;;;;;;5092672;28;20406;-61
2022/04/29 07:00:20;;;;;;;16.73;14.93;;;22.20;99.90;;;;;;5093416;28;20378;-60
2022/04/29 07:02:46;;;;;;;17.98;14.05;;;21.60;99.90;;;;;;5093032;28;20412;-60
2022/04/29 07:05:12;;;;;;;16.52;13.98;;;21.20;99.90;;;;;;5093425;28;20385;-60
2022/04/29 07:07:38;;;;;;;16.20;14.43;;;20.00;99.90;;;;;;5092368;28;20888;-60
2022/04/29 07:10:05;;;;;;;17.05;14.00;;;19.90;99.90;;;;;;5093706;28;20389;-59
2022/04/29 07:12:33;;;;;;;17.70;14.57;;;19.70;99.90;;;;;;5093279;28;20482;-59
2022/04/29 07:14:59;;;;;;;16.27;14.50;;;19.40;99.90;;;;;;5076821;28;20812;-59
2022/04/29 07:17:25;;;;;;;17.10;14.70;;;19.30;99.90;;;;;;5055053;28;20391;-60
2022/04/29 07:19:52;;;;;;;17.20;14.15;;;19.50;99.90;;;;;;5071828;28;20391;-60
2022/04/29 07:22:18;;;;;;;19.17;14.33;;;19.50;99.90;;;;;;5072011;28;20415;-59
2022/04/29 07:24:45;;;;;;;16.47;14.67;;;19.70;99.90;;;;;;5072047;28;20529;-57
2022/04/29 07:27:13;;;;;;;19.55;15.18;;;19.50;99.90;;;;;;5072500;28;20380;-59
2022/04/29 07:29:38;;;;;;;16.92;13.63;;;19.30;99.90;;;;;;5072103;28;20414;-60
2022/04/29 07:32:05;;;;;;;17.00;13.10;;;19.10;99.90;;;;;;5072560;28;20710;-57
2022/04/29 07:42:50;;;;;;;19.70;14.50;;;20.60;99.90;;;;;;5047803;28;20903;-60
2022/04/29 07:45:16;;;;;;;19.53;14.20;;;20.80;99.90;;;;;;5072320;28;20375;-60
2022/04/29 07:47:41;;;;;;;17.20;14.20;;;20.60;99.90;;;;;;5071244;28;20380;-60
2022/04/29 07:50:08;;;;;;;18.05;13.82;;;20.40;99.90;;;;;;5072197;28;20399;-60
2022/04/29 07:52:34;;;;;;;17.73;13.82;;;20.20;99.90;;;;;;5071972;28;20400;-57
2022/04/29 07:55:00;;;;;;;16.13;13.35;;;20.60;99.90;;;;;;5071358;28;20380;-60
2022/04/29 07:57:26;;;;;;;15.48;12.93;;;20.60;99.90;;;;;;5071905;28;20464;-60
2022/04/29 07:59:52;;;;;;;16.63;13.90;;;20.30;99.90;;;;;;5071159;28;20491;-60
2022/04/29 08:02:17;;;;;;;17.37;14.30;;;20.10;99.90;;;;;;5071565;28;20407;-60
2022/04/29 08:04:43;;;;;;;15.90;13.48;;;19.80;99.90;;;;;;5071475;28;20383;-60
2022/04/29 08:07:11;;;;;;;18.90;13.43;;;19.60;99.90;;;;;;5071492;28;20801;-60
2022/04/29 08:09:37;;;;;;;17.80;13.77;;;19.80;99.90;;;;;;5071274;28;20383;-57
2022/04/29 08:12:04;;;;;;;17.60;13.40;;;21.00;99.90;;;;;;5071794;28;20402;-60
2022/04/29 08:14:31;;;;;;;15.60;12.93;;;22.60;99.90;;;;;;5084158;28;20412;-60
2022/04/29 08:16:57;;;;;;;18.20;14.63;;;24.00;99.90;;;;;;5091283;28;20786;-60
2022/04/29 08:19:23;;;;;;;17.60;15.48;;;25.90;99.90;;;;;;5092480;28;20492;-60
2022/04/29 08:21:49;;;;;;;16.63;11.13;;;26.90;99.90;;;;;;5072674;28;20810;-60
2022/04/29 08:24:15;;;;;;;13.10;10.70;;;26.80;99.90;;;;;;5092074;28;20385;-60
2022/04/29 08:26:41;;;;;;;15.77;10.90;;;27.10;99.90;;;;;;5090966;28;20374;-60
2022/04/29 08:29:08;;;;;;;15.60;10.88;;;27.90;99.90;;;;;;5091522;28;20378;-60
2022/04/29 08:31:34;;;;;;;16.95;12.30;;;28.80;99.90;;;;;;5091430;28;20851;-59
2022/04/29 08:34:01;;;;;;;14.98;9.95;;;30.40;99.90;;;;;;5091101;28;20378;-60
2022/04/29 08:36:26;;;;;;;15.95;9.63;;;31.30;99.90;;;;;;5092050;28;20888;-60
2022/04/29 08:38:52;;;;;;;13.27;9.27;;;32.40;99.90;;;;;;5090464;28;20378;-60
2022/04/29 08:41:21;;;;;;;14.50;9.10;;;32.60;99.90;;;;;;5091643;28;20485;-60
2022/04/29 08:43:48;;;;;;;13.10;8.80;;;31.80;99.90;;;;;;5090833;28;20402;-62
2022/04/29 08:46:14;;;;;;;14.10;9.10;;;31.10;99.90;;;;;;5073311;28;20389;-59
2022/04/29 08:48:42;;;;;;;12.60;8.60;;;30.10;99.90;;;;;;5090499;28;20473;-59
2022/04/29 08:51:08;;;;;;;14.90;13.30;;;29.60;99.90;;;;;;5091477;28;20759;-60
2022/04/29 08:53:36;;;;;;;14.30;12.35;;;28.90;99.90;;;;;;5090707;28;20413;-58
2022/04/29 08:58:47;;;;;;;15.82;14.13;;;28.20;99.90;;;;;;5090316;28;20377;-60
2022/04/29 09:01:19;;;;;;;15.05;13.27;;;28.90;99.90;;;;;;5072997;28;20425;-60
2022/04/29 09:03:46;;;;;;;14.57;12.70;;;29.00;99.90;;;;;;5072920;28;20492;-60
2022/04/29 09:06:16;;;;;;;16.38;14.73;;;29.50;99.90;;;;;;5091329;28;20383;-60
2022/04/29 09:08:45;;;;;;;16.55;13.65;;;30.00;99.90;;;;;;5090214;28;20376;-60
2022/04/29 09:11:26;;;;;;;15.40;13.80;;;30.40;99.90;;;;;;5091141;28;20914;-60
2022/04/29 09:13:54;;;;;;;15.60;9.68;;;31.40;99.90;;;;;;5082276;28;20380;-60
2022/04/29 09:16:19;;;;;;;13.60;8.90;;;31.30;99.90;;;;;;5070680;28;20864;-59
2022/04/29 09:18:53;;;;;;;16.87;14.67;;;30.80;99.90;;;;;;5069804;28;20383;-60
2022/04/29 09:21:27;;;;;;;17.48;9.25;;;30.20;99.90;;;;;;5070650;28;20861;-60
2022/04/29 09:23:59;;;;;;;16.13;10.98;;;30.90;99.90;;;;;;5069353;28;20435;-60
2022/04/29 09:26:35;;;;;;;14.25;12.75;;;30.70;99.90;;;;;;5070500;28;20388;-59
2022/04/29 09:29:19;;;;;;;14.68;13.05;;;29.40;99.90;;;;;;5069839;28;20384;-60
2022/04/29 09:32:04;;;;;;;14.32;12.82;;;29.10;99.90;;;;;;5069484;28;20399;-60
2022/04/29 09:34:58;;;;;;;13.38;11.98;;;28.70;99.90;;;;;;5070599;28;20471;-60
2022/04/29 09:37:30;;;;;;;13.73;12.33;;;28.40;99.90;;;;;;5070208;28;20392;-59
2022/04/29 09:40:01;;;;;;;14.60;11.88;;;27.40;99.90;;;;;;5069321;28;20455;-59
2022/04/29 09:42:39;;;;;;;14.57;13.07;;;26.40;99.90;;;;;;5069712;28;20414;-59
2022/04/29 09:45:11;;;;;;;15.10;13.60;;;25.80;99.90;;;;;;5069836;28;20934;-60
2022/04/29 09:47:37;;;;;;;14.77;13.17;;;25.30;99.90;;;;;;5069156;28;20965;-58
2022/04/29 09:50:04;;;;;;;13.50;12.10;;;24.90;99.90;;;;;;5069941;28;20470;-59
2022/04/29 09:52:30;;;;;;;13.70;12.30;;;24.50;99.90;;;;;;5069996;28;20423;-59
2022/04/29 09:55:10;;;;;;;13.05;11.48;;;23.70;99.90;;;;;;5069178;28;20403;-59
2022/04/29 09:57:56;;;;;;;14.10;12.70;;;23.30;99.90;;;;;;5069606;28;20380;-57
2022/04/29 10:00:23;;;;;;;13.27;11.88;;;22.80;99.90;;;;;;5070159;28;20380;-59
2022/04/29 10:02:51;;;;;;;13.53;12.13;;;23.00;99.90;;;;;;5069018;28;20501;-59
2022/04/29 10:05:17;;;;;;;13.77;12.38;;;23.50;99.90;;;;;;5069564;28;20442;-59
2022/04/29 10:07:44;;;;;;;13.65;12.25;;;23.60;99.90;;;;;;5068910;28;20501;-60
2022/04/29 10:10:10;;;;;;;15.10;13.00;;;24.10;99.90;;;;;;5069690;28;20387;-60
2022/04/29 10:12:37;;;;;;;14.27;12.77;;;24.90;99.90;;;;;;5069268;28;20418;-58
2022/04/29 10:15:09;;;;;;;13.65;12.25;;;25.00;99.90;;;;;;5086194;28;20382;-60
2022/04/29 10:23:10;;;;;;;14.10;12.30;;;25.50;99.90;;;;;;5089514;28;20440;-60
2022/04/29 10:25:41;;;;;;;18.35;12.93;;;25.50;99.90;;;;;;5089373;28;20890;-58
2022/04/29 10:28:08;;;;;;;13.50;12.10;;;25.20;99.90;;;;;;5089644;28;20390;-60
2022/04/29 10:30:37;;;;;;;14.50;13.00;;;24.50;99.90;;;;;;5089725;28;20450;-60
2022/04/29 10:33:08;;;;;;;12.05;10.50;;;24.10;99.90;;;;;;5089192;28;20385;-59
2022/04/29 10:35:43;;;;;;;13.80;12.40;;;24.30;99.90;;;;;;5089724;28;20480;-60
2022/04/29 10:38:12;;;;;;;14.93;13.33;;;24.70;99.90;;;;;;5089520;28;20393;-60
2022/04/29 10:40:38;;;;;;;14.05;12.55;;;25.00;99.90;;;;;;5088814;28;20875;-58
2022/04/29 10:43:09;;;;;;;14.70;13.30;;;24.60;99.90;;;;;;5089374;28;20427;-59
2022/04/29 10:45:36;;;;;;;13.70;12.30;;;24.40;99.90;;;;;;5089225;28;20382;-59
2022/04/29 10:48:50;;;;;;;13.40;12.00;;;24.70;99.90;;;;;;5089119;28;20378;-60
2022/04/29 10:51:17;;;;;;;12.50;11.20;;;24.50;99.90;;;;;;5067565;28;20436;-60
2022/04/29 10:53:44;;;;;;;12.70;11.40;;;24.50;99.90;;;;;;5088563;28;20401;-60
2022/04/29 10:56:30;;;;;;;12.17;10.97;;;24.90;99.90;;;;;;5089346;28;20479;-60
2022/04/29 10:59:15;;;;;;;14.20;12.80;;;24.80;99.90;;;;;;5088226;28;20468;-60
2022/04/29 11:01:49;;;;;;;13.10;11.80;;;24.70;99.90;;;;;;5088843;28;20370;-57
2022/04/29 11:04:15;;;;;;;13.13;11.82;;;24.30;99.90;;;;;;5089384;28;20391;-59
2022/04/29 11:06:49;;;;;;;13.40;12.00;;;24.40;99.90;;;;;;5089348;28;20378;-58
2022/04/29 11:09:46;;;;;;;12.95;11.65;;;24.30;99.90;;;;;;5089113;28;20431;-60
2022/04/29 11:12:29;;;;;;;12.40;11.20;;;24.40;99.90;;;;;;5088991;28;20465;-59
2022/04/29 11:15:10;;;;;;;13.05;11.35;;;24.20;99.90;;;;;;5072383;28;20466;-60
2022/04/29 11:17:38;;;;;;;12.63;10.38;;;23.60;99.90;;;;;;5068792;28;20877;-59
2022/04/29 11:20:14;;;;;;;11.60;10.40;;;23.30;99.90;;;;;;5068516;28;20861;-60
2022/04/29 11:25:25;;;;;;;16.20;14.60;;;23.20;99.90;;;;;;5069746;28;20366;-61
2022/04/29 11:27:51;;;;;;;12.50;11.20;;;22.60;99.90;;;;;;5068037;28;20388;-61
2022/04/29 11:30:18;;;;;;;13.60;12.30;;;22.70;99.90;;;;;;5073216;28;20737;-60
2022/04/29 11:32:44;;;;;;;14.27;12.90;;;22.70;99.90;;;;;;5071757;28;20395;-60
2022/04/29 11:35:10;;;;;;;15.25;13.77;;;22.70;99.90;;;;;;5072623;28;20394;-60
2022/04/29 11:37:36;;;;;;;14.00;12.60;;;22.60;99.90;;;;;;5072688;28;20466;-60
2022/04/29 11:40:07;;;;;;;13.35;12.02;;;22.20;99.90;;;;;;5071530;28;20398;-60
2022/04/29 11:42:33;;;;;;;13.23;11.93;;;21.80;99.90;;;;;;5072141;28;20427;-60
2022/04/29 11:45:10;;;;;;;13.50;11.68;;;22.00;99.90;;;;;;5071674;28;20471;-60
2022/04/29 11:47:36;;;;;;;13.80;12.40;;;22.50;99.90;;;;;;5072787;28;20450;-61
2022/04/29 11:50:06;;;;;;;12.40;10.82;;;22.80;99.90;;;;;;5053962;28;20861;-60
2022/04/29 11:52:34;;;;;;;13.30;11.50;;;23.00;99.90;;;;;;5072396;28;20431;-60
2022/04/29 11:55:12;;;;;;;12.63;11.30;;;23.10;99.90;;;;;;5071589;28;20372;-60
2022/04/29 11:57:46;;;;;;;11.82;10.63;;;23.10;99.90;;;;;;5055126;28;20395;-59
2022/04/29 12:00:29;;;;;;;11.75;10.55;;;23.10;99.90;;;;;;5071788;28;20753;-60
2022/04/29 12:02:56;;;;;;;11.90;10.80;;;23.00;99.90;;;;;;5071299;28;20407;-60
2022/04/29 12:05:24;;;;;;;12.77;10.35;;;23.10;99.90;;;;;;5071979;28;20375;-60
2022/04/29 12:07:49;;;;;;;11.50;10.37;;;23.40;99.90;;;;;;5070796;28;20371;-60
2022/04/29 12:10:24;;;;;;;11.48;10.02;;;23.70;99.90;;;;;;5071682;28;20387;-60
2022/04/29 12:12:58;;;;;;;13.18;10.82;;;23.70;99.90;;;;;;5070582;28;20857;-60
2022/04/29 12:15:30;;;;;;;11.02;9.93;;;23.60;99.90;;;;;;5091616;28;20380;-60
2022/04/29 12:17:58;;;;;;;12.13;10.93;;;23.70;99.90;;;;;;5091400;28;20425;-60
2022/04/29 12:20:24;;;;;;;12.45;10.20;;;23.60;99.90;;;;;;5091663;28;20386;-61
2022/04/29 12:22:52;;;;;;;10.68;9.57;;;23.20;99.90;;;;;;5091046;28;20429;-60
2022/04/29 12:25:25;;;;;;;11.38;10.27;;;23.20;99.90;;;;;;5091977;28;20370;-60
2022/04/29 12:28:19;;;;;;;11.80;10.70;;;23.20;99.90;;;;;;5090925;28;20382;-61
2022/04/29 12:37:04;;;;;;;14.88;13.38;;;23.70;99.90;;;;;;5091005;28;20393;-60
2022/04/29 12:39:43;;;;;;;10.40;9.30;;;23.80;99.90;;;;;;5091442;28;20378;-61
2022/04/29 12:42:10;;;;;;;11.05;9.85;;;23.90;99.90;;;;;;5090996;28;20403;-60
2022/04/29 12:47:39;;;;;;;10.38;9.38;;;23.40;99.90;;;;;;5091294;28;20387;-60
2022/04/29 12:50:26;;;;;;;11.57;10.20;;;23.20;99.90;;;;;;5072496;28;20413;-60
2022/04/29 12:52:57;;;;;;;10.90;9.80;;;23.40;99.90;;;;;;5090809;28;20390;-60
2022/04/29 12:55:23;;;;;;;10.77;9.67;;;23.30;99.90;;;;;;5090977;28;20382;-60
2022/04/29 12:57:49;;;;;;;13.55;10.57;;;23.10;99.90;;;;;;5090528;28;20374;-60
2022/04/29 13:00:25;;;;;;;11.95;9.75;;;23.10;99.90;;;;;;5091362;28;20378;-60
2022/04/29 13:03:11;;;;;;;10.50;9.50;;;22.90;99.90;;;;;;5090095;28;20406;-60
2022/04/29 13:05:37;;;;;;;10.90;9.63;;;22.80;99.90;;;;;;5091308;28;20386;-61
2022/04/29 13:08:07;;;;;;;12.00;10.80;;;22.10;99.90;;;;;;5090130;28;20374;-60
2022/04/29 13:10:44;;;;;;;11.70;10.60;;;22.10;99.90;;;;;;5090855;28;20426;-60
2022/04/29 13:13:11;;;;;;;11.60;10.50;;;22.00;99.90;;;;;;5089605;28;20389;-60
2022/04/29 13:15:40;;;;;;;11.25;10.07;;;22.10;99.90;;;;;;5070507;28;20388;-61